Zim Rio Grande — 9HNV9 — position and weather

sailwx.info

Track history (hours):
 
Tides and Currents Weather Stations Pressure Air Temp Water Temp Dewpoint Dewpoint Depression Visibility Wind Speed Wind Dir Waves Ship Positions

Zim Rio Grande

Last reported at 2015-Aug-29 22:16 UTC. Time now 2015-Aug-30 18:04 UTC.
Position N 31°17' E 032°22'.

Length 260 m; draft 12.5 m.

Type: Ship (hazmat cat A). MMSI: 249253000.

Date/timePositionNaut miles runAvg speedWind from/ knotsBaromVisibWave heightAir tempDewpointWater temp
2015-Aug-29 22:16N 31°17' E 032°22'811.2
2015-Aug-29 21:33N 31°24' E 032°23'4 4.4
2015-Aug-29 20:32N 31°26' E 032°17'6 6.6
2015-Aug-29 19:34N 31°31' E 032°13'1313.4
2015-Aug-29 18:33N 31°41' E 032°03'1514.6
2015-Aug-29 17:33N 31°50' E 031°49'1514.8
2015-Aug-29 16:33N 31°59' E 031°36'1514.7
2015-Aug-29 15:33N 32°09' E 031°22'1514.7
2015-Aug-29 14:33N 32°18' E 031°08'1515.1
2015-Aug-29 13:33N 32°27' E 030°54'1915.4
2015-Aug-29 12:20N 32°39' E 030°37'1314.9
2015-Aug-29 11:29N 32°47' E 030°25'1415.0
2015-Aug-29 10:33N 32°55' E 030°12'1514.9
2015-Aug-29 09:33N 33°05' E 029°59'1515.1
2015-Aug-29 08:33N 33°14' E 029°44'1515.0
2015-Aug-29 07:33N 33°23' E 029°30'1515.0
2015-Aug-29 06:33N 33°33' E 029°16'1515.0
2015-Aug-29 05:32N 33°42' E 029°02'1514.7
2015-Aug-29 04:30N 33°52' E 028°48'7814.9
2015-Aug-28 23:16N 34°41' E 027°34'1115.2
2015-Aug-28 22:31N 34°48' E 027°23'1515.2
2015-Aug-28 21:33N 34°57' E 027°08'1515.0
2015-Aug-28 20:33N 35°06' E 026°54'3215.1
2015-Aug-28 18:25N 35°25' E 026°23'4515.7
2015-Aug-28 15:32N 35°51' E 025°37'1515.3
2015-Aug-28 14:33N 35°60' E 025°21'1615.7
2015-Aug-28 13:33N 36°09' E 025°06'1515.4
2015-Aug-28 12:33N 36°17' E 024°50'9014.9
2015-Aug-28 06:33N 37°30' E 023°45'1515.0
2015-Aug-28 05:33N 37°44' E 023°39'1312.7
2015-Aug-28 04:33N 37°57' E 023°36'0 0.3
2015-Aug-28 03:31N 37°57' E 023°36'0 0.0
2015-Aug-28 02:31N 37°57' E 023°36'0 0.0
2015-Aug-28 01:31N 37°57' E 023°36'0 0.0
2015-Aug-28 00:31N 37°57' E 023°36'0 0.0
2015-Aug-27 23:28N 37°57' E 023°36'0 0.0
2015-Aug-27 22:28N 37°57' E 023°36'0 0.0
2015-Aug-27 21:25N 37°57' E 023°36'0 0.0
2015-Aug-27 20:31N 37°57' E 023°36'0 0.0
2015-Aug-27 19:31N 37°57' E 023°36'0 0.0
2015-Aug-27 18:28N 37°57' E 023°36'0 0.0
2015-Aug-27 17:28N 37°57' E 023°36'0 0.0
2015-Aug-27 16:28N 37°57' E 023°36'0 0.0
2015-Aug-27 15:31N 37°57' E 023°36'0 0.0
2015-Aug-27 14:28N 37°57' E 023°36'0 0.0
2015-Aug-27 13:31N 37°57' E 023°36'0 0.0
2015-Aug-27 12:31N 37°57' E 023°36'0 0.0
2015-Aug-27 11:31N 37°57' E 023°36'0 0.0
2015-Aug-27 10:31N 37°57' E 023°36'0 0.0
2015-Aug-27 09:31N 37°57' E 023°36'0 0.0
2015-Aug-27 08:31N 37°57' E 023°36'0 0.0
2015-Aug-27 07:31N 37°57' E 023°36'0 0.0
2015-Aug-27 06:31N 37°57' E 023°36'0 0.0
2015-Aug-27 05:31N 37°57' E 023°36'0 0.4
2015-Aug-27 04:34N 37°57' E 023°36'5 4.9
2015-Aug-27 03:33N 37°52' E 023°37'0 0.1
2015-Aug-27 02:33N 37°52' E 023°37'3 2.8
2015-Aug-27 01:34N 37°50' E 023°40'1111.0
2015-Aug-27 00:34N 37°40' E 023°46'1614.2
2015-Aug-26 23:25N 37°33' E 024°05'3813.3
2015-Aug-26 20:34N 37°20' E 024°50'1514.7
2015-Aug-26 19:33N 37°17' E 025°08'1413.9
2015-Aug-26 18:33N 37°15' E 025°25'1514.8
2015-Aug-26 17:33N 37°12' E 025°43'1514.7
2015-Aug-26 16:33N 37°05' E 025°59'1414.3
2015-Aug-26 15:33N 36°55' E 026°12'1414.4
2015-Aug-26 14:33N 36°45' E 026°25'2015.1
2015-Aug-26 13:15N 36°32' E 026°43'1114.7
2015-Aug-26 12:29N 36°23' E 026°53'2814.7
2015-Aug-26 10:33N 36°03' E 027°17'1514.5
2015-Aug-26 09:33N 35°52' E 027°29'21 9.2
2015-Aug-26 07:18N 35°33' E 027°38'13113.4
2015-Aug-25 21:29N 34°49' E 030°10'18413.9
2015-Aug-25 08:13N 33°28' E 033°29'6714.4
2015-Aug-25 03:34N 32°58' E 034°41'1514.0
2015-Aug-25 02:29N 32°52' E 034°58'2 0.1
2015-Aug-24 10:25N 32°53' E 034°56'1213.3
2015-Aug-24 09:31N 32°54' E 034°42'  
2015-Aug-21 16:28N 31°11' E 029°52'110 3.3
2015-Aug-20 06:34N 31°46' E 031°55'6215.1
2015-Aug-20 02:28N 31°50' E 033°08'1415.3
2015-Aug-20 01:34N 31°51' E 033°24'  
Track history (hours):
 
Tides and Currents Weather Stations Pressure Air Temp Water Temp Dewpoint Dewpoint Depression Visibility Wind Speed Wind Dir Waves Ship Positions

Zim Rio Grande

Last reported at 2015-Aug-29 22:16 UTC. Time now 2015-Aug-30 18:04 UTC.
Position N 31°17' E 032°22'.

Length 260 m; draft 12.5 m.

Type: Ship (hazmat cat A). MMSI: 249253000.

Date/timePositionNaut miles runAvg speedWind from/ knotsBaromVisibWave heightAir tempDewpointWater temp
2015-Aug-29 22:16N 31°17' E 032°22'811.2
2015-Aug-29 21:33N 31°24' E 032°23'4 4.4
2015-Aug-29 20:32N 31°26' E 032°17'6 6.6
2015-Aug-29 19:34N 31°31' E 032°13'1313.4
2015-Aug-29 18:33N 31°41' E 032°03'1514.6
2015-Aug-29 17:33N 31°50' E 031°49'1514.8
2015-Aug-29 16:33N 31°59' E 031°36'1514.7
2015-Aug-29 15:33N 32°09' E 031°22'1514.7
2015-Aug-29 14:33N 32°18' E 031°08'1515.1
2015-Aug-29 13:33N 32°27' E 030°54'1915.4
2015-Aug-29 12:20N 32°39' E 030°37'1314.9
2015-Aug-29 11:29N 32°47' E 030°25'1415.0
2015-Aug-29 10:33N 32°55' E 030°12'1514.9
2015-Aug-29 09:33N 33°05' E 029°59'1515.1
2015-Aug-29 08:33N 33°14' E 029°44'1515.0
2015-Aug-29 07:33N 33°23' E 029°30'1515.0
2015-Aug-29 06:33N 33°33' E 029°16'1515.0
2015-Aug-29 05:32N 33°42' E 029°02'1514.7
2015-Aug-29 04:30N 33°52' E 028°48'7814.9
2015-Aug-28 23:16N 34°41' E 027°34'1115.2
2015-Aug-28 22:31N 34°48' E 027°23'1515.2
2015-Aug-28 21:33N 34°57' E 027°08'1515.0
2015-Aug-28 20:33N 35°06' E 026°54'3215.1
2015-Aug-28 18:25N 35°25' E 026°23'4515.7
2015-Aug-28 15:32N 35°51' E 025°37'1515.3
2015-Aug-28 14:33N 35°60' E 025°21'1615.7
2015-Aug-28 13:33N 36°09' E 025°06'1515.4
2015-Aug-28 12:33N 36°17' E 024°50'9014.9
2015-Aug-28 06:33N 37°30' E 023°45'1515.0
2015-Aug-28 05:33N 37°44' E 023°39'1312.7
2015-Aug-28 04:33N 37°57' E 023°36'0 0.3
2015-Aug-28 03:31N 37°57' E 023°36'0 0.0
2015-Aug-28 02:31N 37°57' E 023°36'0 0.0
2015-Aug-28 01:31N 37°57' E 023°36'0 0.0
2015-Aug-28 00:31N 37°57' E 023°36'0 0.0
2015-Aug-27 23:28N 37°57' E 023°36'0 0.0
2015-Aug-27 22:28N 37°57' E 023°36'0 0.0
2015-Aug-27 21:25N 37°57' E 023°36'0 0.0
2015-Aug-27 20:31N 37°57' E 023°36'0 0.0
2015-Aug-27 19:31N 37°57' E 023°36'0 0.0
2015-Aug-27 18:28N 37°57' E 023°36'0 0.0
2015-Aug-27 17:28N 37°57' E 023°36'0 0.0
2015-Aug-27 16:28N 37°57' E 023°36'0 0.0
2015-Aug-27 15:31N 37°57' E 023°36'0 0.0
2015-Aug-27 14:28N 37°57' E 023°36'0 0.0
2015-Aug-27 13:31N 37°57' E 023°36'0 0.0
2015-Aug-27 12:31N 37°57' E 023°36'0 0.0
2015-Aug-27 11:31N 37°57' E 023°36'0 0.0
2015-Aug-27 10:31N 37°57' E 023°36'0 0.0
2015-Aug-27 09:31N 37°57' E 023°36'0 0.0
2015-Aug-27 08:31N 37°57' E 023°36'0 0.0
2015-Aug-27 07:31N 37°57' E 023°36'0 0.0
2015-Aug-27 06:31N 37°57' E 023°36'0 0.0
2015-Aug-27 05:31N 37°57' E 023°36'0 0.4
2015-Aug-27 04:34N 37°57' E 023°36'5 4.9
2015-Aug-27 03:33N 37°52' E 023°37'0 0.1
2015-Aug-27 02:33N 37°52' E 023°37'3 2.8
2015-Aug-27 01:34N 37°50' E 023°40'1111.0
2015-Aug-27 00:34N 37°40' E 023°46'1614.2
2015-Aug-26 23:25N 37°33' E 024°05'3813.3
2015-Aug-26 20:34N 37°20' E 024°50'1514.7
2015-Aug-26 19:33N 37°17' E 025°08'1413.9
2015-Aug-26 18:33N 37°15' E 025°25'1514.8
2015-Aug-26 17:33N 37°12' E 025°43'1514.7
2015-Aug-26 16:33N 37°05' E 025°59'1414.3
2015-Aug-26 15:33N 36°55' E 026°12'1414.4
2015-Aug-26 14:33N 36°45' E 026°25'2015.1
2015-Aug-26 13:15N 36°32' E 026°43'1114.7
2015-Aug-26 12:29N 36°23' E 026°53'2814.7
2015-Aug-26 10:33N 36°03' E 027°17'1514.5
2015-Aug-26 09:33N 35°52' E 027°29'21 9.2
2015-Aug-26 07:18N 35°33' E 027°38'13113.4
2015-Aug-25 21:29N 34°49' E 030°10'18413.9
2015-Aug-25 08:13N 33°28' E 033°29'6714.4
2015-Aug-25 03:34N 32°58' E 034°41'1514.0
2015-Aug-25 02:29N 32°52' E 034°58'2 0.1
2015-Aug-24 10:25N 32°53' E 034°56'1213.3
2015-Aug-24 09:31N 32°54' E 034°42'  
2015-Aug-21 16:28N 31°11' E 029°52'110 3.3
2015-Aug-20 06:34N 31°46' E 031°55'6215.1
2015-Aug-20 02:28N 31°50' E 033°08'1415.3
2015-Aug-20 01:34N 31°51' E 033°24'  

Dump ship's entire track history